Time;durP1;ratioP1;P1;durP2;ratioP2;P2;SDS_P1;SDS_P2;PMS_P1;PMS_P2;Temp;Humidity;BMP_temperature;BMP_pressure;BME280_temperature;BME280_humidity;BME280_pressure;Samples;Min_cycle;Max_cycle;Signal;HPM_P1;HPM_P2
2024/03/09 00:02:23;;;;;;;3.63;2.20;;;;;;;6.95;100.00;98215.38;4970443;28;20053;-72
2024/03/09 00:05:08;;;;;;;2.95;1.88;;;;;;;6.96;100.00;98219.75;4998054;28;20057;-72
2024/03/09 00:07:54;;;;;;;4.80;2.20;;;;;;;6.92;100.00;98219.59;4984148;28;20154;-72
2024/03/09 00:10:39;;;;;;;4.85;2.40;;;;;;;6.91;100.00;98220.75;4999353;28;20217;-71
2024/03/09 00:13:23;;;;;;;2.97;2.22;;;;;;;6.90;100.00;98221.06;4997271;28;20041;-72
2024/03/09 00:16:08;;;;;;;3.35;2.45;;;;;;;6.87;100.00;98211.50;4991823;28;20044;-72
2024/03/09 00:18:52;;;;;;;5.05;2.55;;;;;;;6.89;100.00;98211.97;4970445;28;20129;-72
2024/03/09 00:21:36;;;;;;;3.60;2.58;;;;;;;6.82;100.00;98217.16;4957951;28;20042;-73
2024/03/09 00:24:21;;;;;;;4.45;2.67;;;;;;;6.82;100.00;98210.84;4983958;28;20045;-72
2024/03/09 00:27:07;;;;;;;4.05;2.60;;;;;;;6.83;100.00;98202.25;4997587;28;20096;-72
2024/03/09 00:29:54;;;;;;;4.07;2.78;;;;;;;6.80;100.00;98194.63;4959625;28;20090;-72
2024/03/09 00:32:39;;;;;;;3.45;2.50;;;;;;;6.78;100.00;98190.56;4997126;28;20504;-72
2024/03/09 00:35:27;;;;;;;3.53;2.83;;;;;;;6.73;100.00;98186.03;5010998;28;20060;-72
2024/03/09 00:38:11;;;;;;;5.13;3.20;;;;;;;6.70;100.00;98183.91;4984144;28;20045;-71
2024/03/09 00:40:55;;;;;;;3.63;2.85;;;;;;;6.69;100.00;98176.78;4991358;28;20406;-72
2024/03/09 00:43:43;;;;;;;4.40;2.90;;;;;;;6.64;100.00;98179.72;4992968;28;20037;-72
2024/03/09 00:46:27;;;;;;;3.75;2.80;;;;;;;6.62;100.00;98168.19;4984057;28;20084;-72
2024/03/09 00:49:13;;;;;;;3.40;2.78;;;;;;;6.58;100.00;98167.22;4985128;28;20061;-72
2024/03/09 00:51:58;;;;;;;4.00;2.95;;;;;;;6.54;100.00;98172.56;4968552;28;20049;-72
2024/03/09 00:54:42;;;;;;;4.32;2.35;;;;;;;6.52;100.00;98171.25;4983406;28;20046;-72
2024/03/09 00:57:26;;;;;;;4.72;3.15;;;;;;;6.48;100.00;98166.38;4974760;28;20132;-72
2024/03/09 01:00:11;;;;;;;3.40;2.60;;;;;;;6.45;100.00;98161.53;4996401;28;20065;-73
2024/03/09 01:02:56;;;;;;;4.60;3.25;;;;;;;6.39;100.00;98164.78;4983374;28;20041;-72
2024/03/09 01:05:44;;;;;;;3.53;2.50;;;;;;;6.37;100.00;98159.56;4997167;28;20073;-72
2024/03/09 01:08:28;;;;;;;3.78;2.67;;;;;;;6.29;100.00;98168.66;4960182;28;20489;-72
2024/03/09 01:11:12;;;;;;;3.60;2.70;;;;;;;6.30;100.00;98164.78;4965104;28;20213;-72
2024/03/09 01:13:56;;;;;;;5.90;2.72;;;;;;;6.26;100.00;98159.06;4978691;28;20085;-72
2024/03/09 01:16:40;;;;;;;3.35;2.33;;;;;;;6.22;100.00;98147.09;4964015;28;20554;-72
2024/03/09 01:19:24;;;;;;;4.65;2.70;;;;;;;6.20;100.00;98140.28;4990478;28;20126;-72
2024/03/09 01:22:10;;;;;;;3.28;2.70;;;;;;;6.17;100.00;98136.22;4987895;28;20138;-72
2024/03/09 01:24:56;;;;;;;4.88;2.75;;;;;;;6.15;100.00;98134.91;4965529;28;20095;-72
2024/03/09 01:27:40;;;;;;;2.92;2.38;;;;;;;6.14;100.00;98134.09;4980620;28;20053;-72
2024/03/09 01:30:25;;;;;;;3.40;2.88;;;;;;;6.17;100.00;98121.63;4982655;28;20500;-72
2024/03/09 01:33:09;;;;;;;3.33;2.80;;;;;;;6.17;100.00;98121.63;4996342;28;20036;-72
2024/03/09 01:35:53;;;;;;;4.25;3.45;;;;;;;6.15;100.00;98121.13;4982697;28;20184;-73
2024/03/09 01:38:39;;;;;;;4.07;3.30;;;;;;;6.16;100.00;98109.81;4982647;28;20555;-72
2024/03/09 01:41:24;;;;;;;4.60;3.35;;;;;;;6.16;100.00;98107.06;4982759;28;20045;-72
2024/03/09 01:44:10;;;;;;;5.28;3.20;;;;;;;6.17;100.00;98111.41;4968487;28;20118;-72
2024/03/09 01:46:54;;;;;;;5.18;3.50;;;;;;;6.14;100.00;98105.75;4995331;28;20103;-72
2024/03/09 01:49:38;;;;;;;3.50;3.03;;;;;;;6.17;100.00;98088.56;4993424;28;20135;-72
2024/03/09 01:52:25;;;;;;;5.03;3.50;;;;;;;6.16;100.00;98092.47;4994959;28;20042;-71
2024/03/09 01:55:10;;;;;;;4.82;3.30;;;;;;;6.17;100.00;98091.31;4969198;28;20046;-72
2024/03/09 01:57:54;;;;;;;4.80;3.55;;;;;;;6.17;100.00;98078.34;4981558;28;20041;-72
2024/03/09 02:00:38;;;;;;;4.60;3.42;;;;;;;6.18;100.00;98068.94;4988045;28;20056;-72
2024/03/09 02:03:23;;;;;;;4.53;3.30;;;;;;;6.17;100.00;98061.00;4970318;28;20061;-72
2024/03/09 02:06:06;;;;;;;4.18;3.05;;;;;;;6.16;100.00;98045.63;4968510;28;20042;-72
2024/03/09 02:08:50;;;;;;;5.03;3.13;;;;;;;6.17;100.00;98053.53;4982283;28;20058;-71
2024/03/09 02:11:42;;;;;;;3.63;3.05;;;;;;;6.15;100.00;98057.75;4982298;28;20042;-71
2024/03/09 02:14:26;;;;;;;3.40;2.70;;;;;;;6.16;100.00;98042.84;4976157;28;20089;-72
2024/03/09 02:17:10;;;;;;;4.68;3.30;;;;;;;6.17;100.00;98050.78;4991748;28;20049;-72
2024/03/09 02:19:54;;;;;;;4.80;3.20;;;;;;;6.17;100.00;98039.75;4995202;28;20117;-72
2024/03/09 02:22:39;;;;;;;4.03;3.30;;;;;;;6.19;100.00;98037.50;4983662;28;20554;-72
2024/03/09 02:25:24;;;;;;;4.63;3.05;;;;;;;6.18;100.00;98038.63;4990592;28;20088;-72
2024/03/09 02:28:09;;;;;;;4.93;3.22;;;;;;;6.21;100.00;98039.91;4995256;28;20045;-72
2024/03/09 02:30:55;;;;;;;4.25;3.22;;;;;;;6.21;100.00;98031.66;4981945;28;20069;-72
2024/03/09 02:33:39;;;;;;;4.05;3.20;;;;;;;6.19;100.00;98033.94;4995598;28;20042;-72
2024/03/09 02:36:28;;;;;;;7.28;3.85;;;;;;;6.19;100.00;98017.41;4977130;28;20050;-72
2024/03/09 02:39:12;;;;;;;4.07;3.38;;;;;;;6.22;100.00;98016.75;4986081;28;20628;-72
2024/03/09 02:41:58;;;;;;;6.53;3.47;;;;;;;6.22;100.00;98011.22;4998997;28;20114;-72
2024/03/09 02:44:42;;;;;;;6.13;3.30;;;;;;;6.21;100.00;98007.66;4972648;28;20088;-72
2024/03/09 02:47:26;;;;;;;5.90;3.80;;;;;;;6.22;100.00;98002.97;5004330;28;20065;-72
2024/03/09 02:50:11;;;;;;;5.25;3.15;;;;;;;6.23;100.00;97997.09;4984478;28;20093;-72
2024/03/09 02:52:55;;;;;;;4.90;3.53;;;;;;;6.24;100.00;97990.47;4972277;28;20055;-72
2024/03/09 02:55:39;;;;;;;4.97;3.40;;;;;;;6.24;100.00;97986.88;4990280;28;20065;-72
2024/03/09 02:58:23;;;;;;;4.80;3.70;;;;;;;6.28;100.00;97985.13;5011492;28;20041;-72
2024/03/09 03:01:07;;;;;;;4.40;3.30;;;;;;;6.29;100.00;97983.16;5001156;28;20066;-71
2024/03/09 03:03:55;;;;;;;4.75;3.20;;;;;;;6.27;100.00;97978.00;4979574;28;20513;-72
2024/03/09 03:06:20;;;;;;;3.60;3.20;;;;;;;6.29;100.00;97989.47;4987462;28;20393;-72
2024/03/09 03:08:48;;;;;;;5.82;3.90;;;;;;;6.28;100.00;97982.34;4960240;28;20032;-72
2024/03/09 03:11:17;;;;;;;4.93;3.13;;;;;;;6.26;100.00;97982.66;5016909;28;20026;-72
2024/03/09 03:13:44;;;;;;;4.10;3.30;;;;;;;6.31;100.00;97978.94;4997210;28;20069;-72
2024/03/09 03:16:13;;;;;;;4.20;3.22;;;;;;;6.30;100.00;97977.34;4978804;28;20044;-71
2024/03/09 03:18:38;;;;;;;4.20;3.22;;;;;;;6.29;100.00;97974.88;4998215;28;20395;-72
2024/03/09 03:21:05;;;;;;;3.83;3.28;;;;;;;6.31;100.00;97972.63;4995197;28;20030;-72
2024/03/09 03:23:31;;;;;;;3.92;3.30;;;;;;;6.31;100.00;97978.13;4966238;28;20040;-72
2024/03/09 03:25:56;;;;;;;3.85;2.80;;;;;;;6.29;100.00;97970.19;4994655;28;20502;-72
2024/03/09 03:28:22;;;;;;;5.53;3.00;;;;;;;6.30;100.00;97965.50;4991191;28;20034;-72
2024/03/09 03:30:47;;;;;;;4.00;2.97;;;;;;;6.30;100.00;97966.31;4998805;28;20041;-72
2024/03/09 03:33:13;;;;;;;4.57;3.15;;;;;;;6.28;100.00;97954.00;4981862;28;20100;-72
2024/03/09 03:35:39;;;;;;;4.10;2.78;;;;;;;6.28;100.00;97957.56;4978738;28;20022;-71
2024/03/09 03:38:06;;;;;;;5.10;3.00;;;;;;;6.24;100.00;97951.06;4981963;28;20478;-71
2024/03/09 03:40:31;;;;;;;4.60;2.97;;;;;;;6.24;100.00;97953.81;4995324;28;20667;-71
2024/03/09 03:42:57;;;;;;;5.15;3.30;;;;;;;6.23;100.00;97946.69;4965738;28;20022;-72
2024/03/09 03:45:23;;;;;;;3.63;3.03;;;;;;;6.24;100.00;97957.41;4982827;28;20033;-72
2024/03/09 03:47:48;;;;;;;4.35;3.08;;;;;;;6.23;100.00;97957.72;4995928;28;20035;-72
2024/03/09 03:50:14;;;;;;;4.68;2.90;;;;;;;6.25;100.00;97963.72;4968284;28;20084;-72
2024/03/09 03:52:40;;;;;;;5.85;3.20;;;;;;;6.21;100.00;97946.19;5001307;28;20386;-72
2024/03/09 03:55:11;;;;;;;5.35;3.03;;;;;;;6.23;100.00;97935.66;4981891;28;20030;-72
2024/03/09 03:57:39;;;;;;;3.67;2.75;;;;;;;6.22;100.00;97931.31;4997140;28;20069;-72
2024/03/09 04:00:06;;;;;;;4.15;3.03;;;;;;;6.23;100.00;97930.97;4975978;28;20134;-72
2024/03/09 04:02:35;;;;;;;4.70;3.30;;;;;;;6.25;100.00;97936.16;4988588;28;20034;-72
2024/03/09 04:05:02;;;;;;;5.75;3.08;;;;;;;6.22;100.00;97923.84;4982199;28;20072;-72
2024/03/09 04:07:27;;;;;;;7.20;3.10;;;;;;;6.20;100.00;97936.31;4984937;28;20032;-72
2024/03/09 04:09:54;;;;;;;3.92;3.00;;;;;;;6.18;100.00;97933.88;4998370;28;20026;-72
2024/03/09 04:12:20;;;;;;;4.68;2.95;;;;;;;6.18;100.00;97928.38;4974977;28;20069;-72
2024/03/09 04:14:47;;;;;;;3.85;3.17;;;;;;;6.19;100.00;97918.19;4964836;28;20034;-72
2024/03/09 04:17:13;;;;;;;4.32;3.10;;;;;;;6.20;100.00;97908.75;4981411;28;20108;-72
2024/03/09 04:19:38;;;;;;;4.20;3.25;;;;;;;6.22;100.00;97904.53;4968684;28;20030;-72
2024/03/09 04:22:05;;;;;;;3.22;2.88;;;;;;;6.22;100.00;97907.31;5006638;28;20085;-72
2024/03/09 04:24:30;;;;;;;4.55;2.97;;;;;;;6.25;100.00;97919.63;4965013;28;20018;-72
2024/03/09 04:26:56;;;;;;;6.75;3.10;;;;;;;6.25;100.00;97914.09;4964559;28;20038;-73
2024/03/09 04:29:22;;;;;;;3.42;2.78;;;;;;;6.22;100.00;97920.28;4978199;28;20084;-72
2024/03/09 04:31:48;;;;;;;3.50;3.05;;;;;;;6.25;100.00;97936.97;5013367;28;20038;-72
2024/03/09 04:34:15;;;;;;;3.78;2.60;;;;;;;6.26;100.00;97932.25;4977843;28;20421;-72
2024/03/09 04:36:40;;;;;;;4.38;2.55;;;;;;;6.28;100.00;97938.25;4964720;28;20034;-72
2024/03/09 04:39:09;;;;;;;3.17;2.35;;;;;;;6.24;100.00;97942.78;4980601;28;20029;-72
2024/03/09 04:41:35;;;;;;;3.67;2.58;;;;;;;6.28;100.00;97937.44;4981107;28;20089;-72
2024/03/09 04:44:00;;;;;;;4.75;2.78;;;;;;;6.29;100.00;97930.78;4993211;28;20356;-72
2024/03/09 04:46:27;;;;;;;2.63;2.30;;;;;;;6.24;100.00;97921.56;4983248;28;20028;-72
2024/03/09 04:48:52;;;;;;;4.68;2.58;;;;;;;6.29;100.00;97930.78;4991392;28;20032;-72
2024/03/09 04:51:18;;;;;;;5.68;2.85;;;;;;;6.25;100.00;97917.66;4983896;28;20041;-72
2024/03/09 04:53:45;;;;;;;3.60;2.22;;;;;;;6.29;100.00;97914.25;4989559;28;20030;-72
2024/03/09 04:56:10;;;;;;;3.10;2.42;;;;;;;6.29;100.00;97915.06;4997658;28;20113;-72
2024/03/09 04:58:36;;;;;;;4.80;2.50;;;;;;;6.26;100.00;97911.00;4965272;28;20061;-72
2024/03/09 05:01:01;;;;;;;3.30;2.53;;;;;;;6.27;100.00;97906.31;4964790;28;20051;-72
2024/03/09 05:03:28;;;;;;;2.92;2.22;;;;;;;6.28;100.00;97902.41;4977482;28;20031;-73
2024/03/09 05:05:54;;;;;;;3.55;2.08;;;;;;;6.25;100.00;97892.88;4983255;28;20437;-72
2024/03/09 05:08:19;;;;;;;2.80;2.10;;;;;;;6.26;100.00;97894.47;4966118;28;20025;-72
2024/03/09 05:10:44;;;;;;;2.78;2.17;;;;;;;6.28;100.00;97896.91;4978705;28;20482;-72
2024/03/09 05:13:10;;;;;;;5.55;2.20;;;;;;;6.29;100.00;97895.75;4960599;28;20088;-72
2024/03/09 05:15:36;;;;;;;2.92;1.98;;;;;;;6.27;100.00;97900.81;4979842;28;20034;-72
2024/03/09 05:18:09;;;;;;;3.10;2.08;;;;;;;6.28;100.00;97885.09;4963553;28;20034;-72
2024/03/09 05:20:34;;;;;;;4.75;2.20;;;;;;;6.25;100.00;97892.06;4981080;28;20060;-71
2024/03/09 05:23:03;;;;;;;3.63;2.15;;;;;;;6.27;100.00;97884.28;5000474;28;20045;-72
2024/03/09 05:25:30;;;;;;;4.10;2.33;;;;;;;6.29;100.00;97886.69;4988311;28;20030;-72
2024/03/09 05:27:57;;;;;;;3.75;2.17;;;;;;;6.29;100.00;97886.69;4953119;28;20029;-72
2024/03/09 05:30:24;;;;;;;4.30;2.15;;;;;;;6.32;100.00;97875.00;4983578;28;20116;-72
2024/03/09 05:32:53;;;;;;;2.40;2.10;;;;;;;6.30;100.00;97877.31;5009646;28;20117;-72
2024/03/09 05:35:28;;;;;;;2.80;2.20;;;;;;;6.30;100.00;97877.31;4996039;28;20042;-72
2024/03/09 05:37:55;;;;;;;5.05;2.40;;;;;;;6.29;100.00;97878.41;4959805;28;20032;-72
2024/03/09 05:40:20;;;;;;;5.82;2.60;;;;;;;6.28;100.00;97877.63;4984834;28;20030;-72
2024/03/09 05:42:50;;;;;;;2.13;1.92;;;;;;;6.31;100.00;97881.66;4976329;28;20367;-72
2024/03/09 05:45:18;;;;;;;5.75;2.20;;;;;;;6.31;100.00;97868.69;4966406;28;20609;-72
2024/03/09 05:47:52;;;;;;;3.92;2.53;;;;;;;6.31;100.00;97868.69;5002645;28;20026;-72
2024/03/09 05:50:18;;;;;;;3.80;2.47;;;;;;;6.30;100.00;97877.31;4978677;28;20073;-72
2024/03/09 05:52:47;;;;;;;3.35;2.20;;;;;;;6.30;100.00;97872.59;4962142;28;20026;-72
2024/03/09 05:55:16;;;;;;;3.65;2.25;;;;;;;6.29;100.00;97867.41;4978684;28;20402;-72
2024/03/09 05:57:48;;;;;;;2.45;2.05;;;;;;;6.30;100.00;97861.56;4971135;28;20065;-72
2024/03/09 06:00:36;;;;;;;3.55;2.33;;;;;;;6.30;100.00;97861.56;4993021;28;20096;-71
2024/03/09 06:03:03;;;;;;;3.58;2.15;;;;;;;6.32;100.00;97858.47;4966860;28;20702;-72
2024/03/09 06:05:30;;;;;;;3.70;2.35;;;;;;;6.30;100.00;97856.06;4983270;28;20541;-72
2024/03/09 06:07:55;;;;;;;5.10;2.05;;;;;;;6.32;100.00;97856.50;4972856;28;20042;-72
2024/03/09 06:10:21;;;;;;;2.88;2.20;;;;;;;6.32;100.00;97855.69;5008184;28;20080;-72
2024/03/09 06:12:47;;;;;;;2.10;1.48;;;;;;;6.34;100.00;97856.19;4981587;28;20034;-72
2024/03/09 06:15:14;;;;;;;2.95;1.95;;;;;;;6.32;100.00;97852.94;4962894;28;20054;-72
2024/03/09 06:17:44;;;;;;;2.72;1.95;;;;;;;6.32;100.00;97859.25;4996057;28;20041;-72
2024/03/09 06:20:10;;;;;;;2.28;1.80;;;;;;;6.31;100.00;97857.66;4998948;28;20030;-72
2024/03/09 06:22:36;;;;;;;2.70;1.85;;;;;;;6.34;100.00;97857.00;4941256;28;20042;-72
2024/03/09 06:25:02;;;;;;;2.15;1.70;;;;;;;6.34;100.00;97851.47;4987077;28;20018;-73
2024/03/09 06:27:27;;;;;;;2.53;1.90;;;;;;;6.34;100.00;97851.47;4986648;28;20037;-72
2024/03/09 06:29:56;;;;;;;3.90;2.03;;;;;;;6.34;100.00;97840.44;4989957;28;20031;-72
2024/03/09 06:32:25;;;;;;;2.60;1.80;;;;;;;6.36;100.00;97829.09;4992293;28;20038;-72
2024/03/09 06:34:53;;;;;;;4.00;1.90;;;;;;;6.31;100.00;97838.38;4978874;28;20034;-72
2024/03/09 06:37:18;;;;;;;3.05;2.10;;;;;;;6.31;100.00;97838.38;4991976;28;20117;-72
2024/03/09 06:39:45;;;;;;;2.40;1.90;;;;;;;6.32;100.00;97830.91;4960100;28;20142;-72
2024/03/09 06:42:11;;;;;;;2.88;2.05;;;;;;;6.33;100.00;97827.03;4943425;28;20060;-72
2024/03/09 06:44:39;;;;;;;2.70;1.85;;;;;;;6.33;100.00;97811.28;4980028;28;20029;-72
2024/03/09 06:47:06;;;;;;;3.55;2.08;;;;;;;6.33;100.00;97814.03;4976298;28;20030;-72
2024/03/09 06:49:35;;;;;;;4.30;2.03;;;;;;;6.34;100.00;97814.84;4962451;28;20037;-72
2024/03/09 06:52:04;;;;;;;3.35;1.85;;;;;;;6.34;100.00;97809.31;4963252;28;20116;-73
2024/03/09 06:54:30;;;;;;;3.40;2.00;;;;;;;6.35;100.00;97809.00;4960579;28;20441;-72
2024/03/09 06:56:56;;;;;;;4.38;1.70;;;;;;;6.35;100.00;97797.16;4969105;28;20030;-72
2024/03/09 06:59:22;;;;;;;3.08;1.65;;;;;;;6.36;100.00;97799.59;4981908;28;20061;-72
2024/03/09 07:01:51;;;;;;;3.50;1.75;;;;;;;6.34;100.00;97795.53;4950631;28;20043;-72
2024/03/09 07:04:18;;;;;;;2.15;1.50;;;;;;;6.31;100.00;97788.75;4993866;28;20065;-72
2024/03/09 07:06:44;;;;;;;2.05;1.50;;;;;;;6.34;100.00;97793.59;4969311;28;20041;-73
2024/03/09 07:09:11;;;;;;;2.83;1.58;;;;;;;6.35;100.00;97797.97;4980030;28;20429;-72
2024/03/09 07:11:38;;;;;;;2.63;1.85;;;;;;;6.37;100.00;97779.13;4994161;28;20057;-72
2024/03/09 07:14:04;;;;;;;2.78;1.80;;;;;;;6.37;100.00;97779.13;4985145;28;20029;-72
2024/03/09 07:16:29;;;;;;;1.67;1.48;;;;;;;6.39;100.00;97787.09;4998281;28;20026;-72
2024/03/09 07:18:56;;;;;;;2.22;1.40;;;;;;;6.41;100.00;97785.63;4987038;28;20730;-72
2024/03/09 07:21:23;;;;;;;2.72;1.30;;;;;;;6.40;100.00;97783.19;4962701;28;20030;-73
2024/03/09 07:23:49;;;;;;;2.28;1.50;;;;;;;6.37;100.00;97773.63;4979226;28;20052;-72
2024/03/09 07:26:15;;;;;;;1.88;1.58;;;;;;;6.40;100.00;97792.25;4979116;28;20478;-72
2024/03/09 07:28:40;;;;;;;3.28;1.50;;;;;;;6.40;100.00;97783.97;4977429;28;20038;-72
2024/03/09 07:31:06;;;;;;;2.55;1.48;;;;;;;6.44;100.00;97778.63;5000044;28;20041;-72
2024/03/09 07:33:35;;;;;;;2.15;1.58;;;;;;;6.41;100.00;97779.31;5001134;28;20037;-72
2024/03/09 07:36:01;;;;;;;2.72;1.58;;;;;;;6.45;100.00;97775.53;4985832;28;20030;-72
2024/03/09 07:38:27;;;;;;;2.13;1.50;;;;;;;6.45;100.00;97766.44;5017495;28;20033;-72
2024/03/09 07:40:53;;;;;;;1.90;1.23;;;;;;;6.47;100.00;97764.97;4985640;28;20060;-72
2024/03/09 07:43:20;;;;;;;2.63;1.50;;;;;;;6.45;100.00;97774.72;4988712;28;20053;-72
2024/03/09 07:45:46;;;;;;;2.85;2.03;;;;;;;6.49;100.00;97770.16;4997846;28;20459;-73
2024/03/09 07:48:16;;;;;;;2.13;1.38;;;;;;;6.51;100.00;97772.59;5013678;28;20104;-72
2024/03/09 07:50:43;;;;;;;1.90;1.30;;;;;;;6.49;100.00;97775.66;4969976;28;20034;-72
2024/03/09 07:53:08;;;;;;;2.67;1.50;;;;;;;6.49;100.00;97759.94;4979412;28;20033;-72
2024/03/09 07:55:34;;;;;;;2.20;1.40;;;;;;;6.49;100.00;97770.16;4969007;28;20033;-72
2024/03/09 07:57:59;;;;;;;2.67;1.60;;;;;;;6.54;100.00;97758.94;4981526;28;20030;-72
2024/03/09 08:00:28;;;;;;;1.50;1.30;;;;;;;6.52;100.00;97757.63;4989574;28;20054;-72
2024/03/09 08:02:55;;;;;;;2.38;1.60;;;;;;;6.55;100.00;97752.28;4979939;28;20490;-73
2024/03/09 08:05:23;;;;;;;2.67;1.45;;;;;;;6.56;100.00;97753.09;4989592;28;20027;-73
2024/03/09 08:07:48;;;;;;;3.35;1.40;;;;;;;6.57;100.00;97749.97;4993265;28;20037;-72
2024/03/09 08:10:27;;;;;;;2.80;1.67;;;;;;;6.58;100.00;97739.78;4988269;28;20114;-73
2024/03/09 08:12:56;;;;;;;2.55;1.70;;;;;;;6.62;100.00;97758.06;4979016;28;20541;-72
2024/03/09 08:15:21;;;;;;;2.80;1.63;;;;;;;6.64;100.00;97750.28;4997377;28;20027;-72
2024/03/09 08:17:49;;;;;;;2.40;1.50;;;;;;;6.67;100.00;97740.53;4979621;28;20522;-72
2024/03/09 08:20:15;;;;;;;4.32;1.60;;;;;;;6.71;100.00;97749.72;4981890;28;20030;-74
2024/03/09 08:22:41;;;;;;;2.42;1.52;;;;;;;6.72;100.00;97743.88;4981161;28;20030;-73
2024/03/09 08:25:15;;;;;;;2.75;1.30;;;;;;;6.77;100.00;97742.06;4951803;28;20125;-73
2024/03/09 08:27:41;;;;;;;2.72;1.15;;;;;;;6.79;100.00;97743.34;4945203;28;20061;-73
2024/03/09 08:30:07;;;;;;;2.08;1.50;;;;;;;6.84;100.00;97753.38;4973724;28;20053;-73
2024/03/09 08:32:36;;;;;;;3.30;1.48;;;;;;;6.86;100.00;97746.38;4998108;28;20490;-73
2024/03/09 08:35:08;;;;;;;2.65;1.48;;;;;;;6.88;100.00;97749.63;4989348;28;20089;-73
2024/03/09 08:37:41;;;;;;;2.38;1.35;;;;;;;6.91;100.00;97739.84;4986164;28;20060;-73
2024/03/09 08:40:10;;;;;;;2.20;1.30;;;;;;;6.93;100.00;97741.09;4969356;28;20038;-72
2024/03/09 08:42:36;;;;;;;1.98;1.20;;;;;;;6.97;100.00;97741.25;4987207;28;20033;-73
2024/03/09 08:45:02;;;;;;;3.03;1.30;;;;;;;6.96;100.00;97744.34;4971644;28;20037;-73
2024/03/09 08:47:28;;;;;;;1.33;1.15;;;;;;;6.99;100.00;97732.63;4964027;28;20501;-73
2024/03/09 08:49:54;;;;;;;2.35;1.13;;;;;;;7.00;100.00;97739.78;4980850;28;20080;-73
2024/03/09 08:52:20;;;;;;;2.90;1.00;;;;;;;7.01;100.00;97735.88;4967808;28;20058;-73
2024/03/09 08:54:47;;;;;;;3.15;1.20;;;;;;;7.02;100.00;97741.06;4996525;28;20035;-73
2024/03/09 08:57:13;;;;;;;2.35;1.27;;;;;;;7.01;100.00;97736.66;4970774;28;20088;-73
2024/03/09 08:59:42;;;;;;;3.20;1.20;;;;;;;7.04;100.00;97741.50;5003577;28;20030;-73
2024/03/09 09:02:07;;;;;;;1.58;1.20;;;;;;;7.02;100.00;97737.47;4972964;28;20074;-73
2024/03/09 09:04:36;;;;;;;3.42;1.60;;;;;;;7.02;100.00;97737.47;4965306;28;20026;-73
2024/03/09 09:07:01;;;;;;;3.35;1.10;;;;;;;7.03;100.00;97739.91;4980812;28;20714;-73
2024/03/09 09:09:27;;;;;;;3.60;1.50;;;;;;;7.03;100.00;97728.88;4977526;28;20121;-73
2024/03/09 09:11:53;;;;;;;3.50;1.40;;;;;;;7.03;100.00;97736.34;4976901;28;20471;-73
2024/03/09 09:14:19;;;;;;;4.28;1.25;;;;;;;7.04;100.00;97735.97;4974318;28;20554;-73
2024/03/09 09:16:45;;;;;;;1.88;0.90;;;;;;;7.04;100.00;97740.69;4989961;28;20030;-73
2024/03/09 09:19:11;;;;;;;4.30;1.17;;;;;;;7.05;100.00;97736.78;5002661;28;20103;-72
2024/03/09 09:21:36;;;;;;;2.63;1.38;;;;;;;7.06;100.00;97732.91;5011438;28;20023;-73
2024/03/09 09:24:02;;;;;;;3.50;1.35;;;;;;;7.05;100.00;97734.03;4996873;28;20026;-73
2024/03/09 09:26:28;;;;;;;1.10;1.00;;;;;;;7.03;100.00;97739.09;5012082;28;20065;-72
2024/03/09 09:28:54;;;;;;;2.80;1.10;;;;;;;7.03;100.00;97737.13;4972092;28;20382;-73
2024/03/09 09:31:20;;;;;;;3.72;1.33;;;;;;;7.04;100.00;97733.22;5002843;28;20026;-73
2024/03/09 09:33:45;;;;;;;3.45;1.25;;;;;;;7.03;100.00;97728.06;5002112;28;20038;-73
2024/03/09 09:36:12;;;;;;;4.20;1.30;;;;;;;7.05;100.00;97731.25;4982979;28;20038;-73
2024/03/09 09:38:39;;;;;;;6.00;1.20;;;;;;;7.06;100.00;97728.19;5002174;28;20038;-73
2024/03/09 09:41:05;;;;;;;2.60;1.63;;;;;;;7.06;100.00;97730.13;4977217;28;20030;-78
2024/03/09 09:43:32;;;;;;;3.88;1.60;;;;;;;7.07;100.00;97729.78;4980661;28;20459;-76
2024/03/09 09:45:57;;;;;;;4.60;1.60;;;;;;;7.09;100.00;97724.75;4971155;28;20026;-74
2024/03/09 09:48:24;;;;;;;9.60;2.17;;;;;;;7.11;100.00;97727.97;4985306;28;20034;-74
2024/03/09 09:50:50;;;;;;;3.15;1.42;;;;;;;7.12;100.00;97715.78;5008525;28;20030;-75
2024/03/09 09:53:18;;;;;;;2.15;1.13;;;;;;;7.13;100.00;97736.72;4996937;28;20133;-78
2024/03/09 09:55:46;;;;;;;5.82;1.08;;;;;;;7.18;100.00;97730.19;4983278;28;20030;-79
2024/03/09 09:58:24;;;;;;;3.20;1.02;;;;;;;7.21;100.00;97729.50;4986456;28;20112;-79
2024/03/09 10:00:59;;;;;;;3.78;1.13;;;;;;;7.23;100.00;97724.44;4954952;28;20443;-78
2024/03/09 10:04:08;;;;;;;17.73;1.63;;;;;;;7.22;100.00;97728.38;4947275;28;20041;-79
2024/03/09 10:06:33;;;;;;;2.95;1.10;;;;;;;7.21;100.00;97729.50;5006243;28;20038;-74
2024/03/09 10:08:59;;;;;;;6.13;1.27;;;;;;;7.21;100.00;97735.00;5003967;28;20041;-75
2024/03/09 10:11:25;;;;;;;2.30;1.30;;;;;;;7.26;100.00;97734.00;4980080;28;20061;-74
2024/03/09 10:13:56;;;;;;;3.15;0.95;;;;;;;7.25;100.00;97733.22;5001876;28;20029;-75
2024/03/09 10:16:32;;;;;;;3.08;1.00;;;;;;;7.26;100.00;97737.56;4992261;28;20066;-74
2024/03/09 10:18:58;;;;;;;2.03;0.88;;;;;;;7.27;100.00;97732.84;4975810;28;20475;-75
2024/03/09 10:21:37;;;;;;;3.17;1.15;;;;;;;7.29;100.00;97736.09;4962302;28;20026;-74
2024/03/09 10:24:03;;;;;;;3.28;1.00;;;;;;;7.30;100.00;97737.69;4980059;28;20031;-75
2024/03/09 10:26:29;;;;;;;1.80;0.98;;;;;;;7.30;100.00;97738.53;5007079;28;20030;-75
2024/03/09 10:28:59;;;;;;;2.15;1.40;;;;;;;7.30;100.00;97733.00;4962911;28;20037;-75
2024/03/09 10:31:25;;;;;;;2.05;1.00;;;;;;;7.30;100.00;97723.88;4987150;28;20102;-74
2024/03/09 10:33:54;;;;;;;2.45;1.17;;;;;;;7.32;100.00;97730.69;4963914;28;20022;-75
2024/03/09 10:36:25;;;;;;;2.67;1.33;;;;;;;7.33;100.00;97726.00;4994871;28;20115;-75
2024/03/09 10:38:54;;;;;;;2.65;1.20;;;;;;;7.31;100.00;97728.28;4981245;28;20030;-78
2024/03/09 10:41:26;;;;;;;2.63;1.10;;;;;;;7.36;100.00;97737.16;4982392;28;20026;-77
2024/03/09 10:43:52;;;;;;;2.42;1.25;;;;;;;7.36;100.00;97725.31;4965996;28;20030;-76
2024/03/09 10:46:23;;;;;;;2.25;0.90;;;;;;;7.37;100.00;97737.97;4982463;28;20022;-76
2024/03/09 10:48:51;;;;;;;4.13;0.95;;;;;;;7.39;100.00;97730.94;4962720;28;20034;-76
2024/03/09 10:51:39;;;;;;;2.75;1.02;;;;;;;7.40;100.00;97731.75;4989206;28;20041;-76
2024/03/09 10:54:45;;;;;;;1.45;0.90;;;;;;;7.39;100.00;97730.16;5015265;28;20026;-76
2024/03/09 10:57:15;;;;;;;2.10;1.15;;;;;;;7.41;100.00;97727.03;4966497;28;20042;-77
2024/03/09 10:59:41;;;;;;;2.83;1.10;;;;;;;7.42;100.00;97723.13;4961548;28;20378;-76
2024/03/09 11:02:07;;;;;;;2.97;0.90;;;;;;;7.43;100.00;97730.25;4998180;28;20038;-76
2024/03/09 11:04:32;;;;;;;5.03;1.40;;;;;;;7.42;100.00;97728.66;5014713;28;20033;-76
2024/03/09 11:06:58;;;;;;;2.97;1.10;;;;;;;7.43;100.00;97720.03;4998565;28;20038;-75
2024/03/09 11:09:29;;;;;;;2.22;1.00;;;;;;;7.44;100.00;97726.34;4994418;28;20401;-75
2024/03/09 11:11:56;;;;;;;2.50;1.10;;;;;;;7.43;100.00;97719.22;4980623;28;20045;-77
2024/03/09 11:14:23;;;;;;;4.45;1.30;;;;;;;7.44;100.00;97716.13;4962581;28;20552;-76
2024/03/09 11:16:55;;;;;;;2.40;1.38;;;;;;;7.47;100.00;97714.66;4975481;28;20019;-77
2024/03/09 11:19:21;;;;;;;2.40;1.13;;;;;;;7.46;100.00;97722.09;4976938;28;20031;-76
2024/03/09 11:21:48;;;;;;;3.55;1.40;;;;;;;7.47;100.00;97726.50;4992380;28;20031;-77
2024/03/09 11:24:14;;;;;;;2.25;1.00;;;;;;;7.48;100.00;97722.56;4958956;28;20027;-76
2024/03/09 11:26:50;;;;;;;2.72;1.10;;;;;;;7.48;100.00;97717.03;4965479;28;20387;-76
2024/03/09 11:29:16;;;;;;;2.50;0.93;;;;;;;7.49;100.00;97715.09;4965169;28;20042;-76
2024/03/09 11:31:42;;;;;;;3.45;1.15;;;;;;;7.47;100.00;97726.50;4962464;28;20475;-76
2024/03/09 11:34:15;;;;;;;3.55;1.17;;;;;;;7.49;100.00;97715.09;4981798;28;20085;-76
2024/03/09 11:36:51;;;;;;;1.42;1.00;;;;;;;7.51;100.00;97721.09;4997846;28;20109;-76
2024/03/09 11:39:28;;;;;;;3.00;1.30;;;;;;;7.53;100.00;97713.28;4987597;28;20516;-76
2024/03/09 11:41:54;;;;;;;4.78;1.20;;;;;;;7.53;100.00;97716.03;4989815;28;20074;-76
2024/03/09 11:44:30;;;;;;;3.42;0.90;;;;;;;7.56;100.00;97715.34;4979001;28;20026;-76
2024/03/09 11:46:56;;;;;;;1.05;0.80;;;;;;;7.56;100.00;97716.16;4997415;28;20034;-75
2024/03/09 11:49:28;;;;;;;1.80;1.10;;;;;;;7.56;100.00;97715.34;4999068;28;20041;-76
2024/03/09 11:51:56;;;;;;;2.20;1.05;;;;;;;7.59;100.00;97717.41;4987500;28;20041;-76
2024/03/09 11:54:22;;;;;;;1.38;0.60;;;;;;;7.60;100.00;97717.09;4985252;28;20118;-76
2024/03/09 11:56:48;;;;;;;2.03;0.77;;;;;;;7.62;100.00;97719.50;5001851;28;20035;-75